sensor_id;sensor_type;location;lat;lon;timestamp;P1;durP1;ratioP1;P2;durP2;ratioP2
33327;SDS011;19692;52.998;9.116;2023-03-01T00:01:02;6.10;;;4.20;;
33327;SDS011;19692;52.998;9.116;2023-03-01T00:03:32;5.90;;;4.93;;
33327;SDS011;19692;52.998;9.116;2023-03-01T00:05:59;5.60;;;4.17;;
33327;SDS011;19692;52.998;9.116;2023-03-01T00:08:25;8.47;;;4.57;;
33327;SDS011;19692;52.998;9.116;2023-03-01T00:13:31;6.40;;;4.77;;
33327;SDS011;19692;52.998;9.116;2023-03-01T00:15:57;11.00;;;5.03;;
33327;SDS011;19692;52.998;9.116;2023-03-01T00:18:23;8.60;;;4.53;;
33327;SDS011;19692;52.998;9.116;2023-03-01T00:20:50;6.13;;;4.07;;
33327;SDS011;19692;52.998;9.116;2023-03-01T00:23:20;5.93;;;4.70;;
33327;SDS011;19692;52.998;9.116;2023-03-01T00:25:46;7.00;;;4.87;;
33327;SDS011;19692;52.998;9.116;2023-03-01T00:28:12;7.07;;;4.57;;
33327;SDS011;19692;52.998;9.116;2023-03-01T00:30:38;6.27;;;4.90;;
33327;SDS011;19692;52.998;9.116;2023-03-01T00:33:03;6.03;;;4.30;;
33327;SDS011;19692;52.998;9.116;2023-03-01T00:35:29;4.60;;;3.43;;
33327;SDS011;19692;52.998;9.116;2023-03-01T00:37:58;5.90;;;3.50;;
33327;SDS011;19692;52.998;9.116;2023-03-01T00:40:25;4.40;;;3.40;;
33327;SDS011;19692;52.998;9.116;2023-03-01T00:42:51;4.43;;;3.60;;
33327;SDS011;19692;52.998;9.116;2023-03-01T00:45:17;7.20;;;3.80;;
33327;SDS011;19692;52.998;9.116;2023-03-01T00:47:43;4.27;;;3.80;;
33327;SDS011;19692;52.998;9.116;2023-03-01T00:50:09;4.90;;;4.17;;
33327;SDS011;19692;52.998;9.116;2023-03-01T00:52:36;4.73;;;4.20;;
33327;SDS011;19692;52.998;9.116;2023-03-01T00:55:05;5.63;;;3.90;;
33327;SDS011;19692;52.998;9.116;2023-03-01T00:57:38;4.97;;;3.73;;
33327;SDS011;19692;52.998;9.116;2023-03-01T01:00:04;6.37;;;3.77;;
33327;SDS011;19692;52.998;9.116;2023-03-01T01:02:32;7.50;;;3.53;;
33327;SDS011;19692;52.998;9.116;2023-03-01T01:04:58;4.43;;;3.10;;
33327;SDS011;19692;52.998;9.116;2023-03-01T01:07:24;5.60;;;3.57;;
33327;SDS011;19692;52.998;9.116;2023-03-01T01:09:50;4.43;;;3.40;;
33327;SDS011;19692;52.998;9.116;2023-03-01T01:12:16;4.60;;;3.30;;
33327;SDS011;19692;52.998;9.116;2023-03-01T01:14:41;8.13;;;4.10;;
33327;SDS011;19692;52.998;9.116;2023-03-01T01:17:07;6.40;;;4.27;;
33327;SDS011;19692;52.998;9.116;2023-03-01T01:19:33;5.93;;;4.07;;
33327;SDS011;19692;52.998;9.116;2023-03-01T01:21:58;5.97;;;4.40;;
33327;SDS011;19692;52.998;9.116;2023-03-01T01:24:24;5.10;;;4.07;;
33327;SDS011;19692;52.998;9.116;2023-03-01T01:26:50;5.23;;;4.00;;
33327;SDS011;19692;52.998;9.116;2023-03-01T01:29:16;6.33;;;3.97;;
33327;SDS011;19692;52.998;9.116;2023-03-01T01:31:42;6.47;;;4.17;;
33327;SDS011;19692;52.998;9.116;2023-03-01T01:34:12;4.77;;;3.80;;
33327;SDS011;19692;52.998;9.116;2023-03-01T01:36:41;7.80;;;4.83;;
33327;SDS011;19692;52.998;9.116;2023-03-01T01:39:07;6.10;;;4.60;;
33327;SDS011;19692;52.998;9.116;2023-03-01T01:41:37;7.17;;;4.37;;
33327;SDS011;19692;52.998;9.116;2023-03-01T01:44:14;6.53;;;4.10;;
33327;SDS011;19692;52.998;9.116;2023-03-01T01:52:12;6.93;;;4.90;;
33327;SDS011;19692;52.998;9.116;2023-03-01T01:55:05;7.37;;;5.37;;
33327;SDS011;19692;52.998;9.116;2023-03-01T01:57:37;7.03;;;5.07;;
33327;SDS011;19692;52.998;9.116;2023-03-01T02:00:14;6.17;;;5.37;;
33327;SDS011;19692;52.998;9.116;2023-03-01T02:02:52;6.83;;;5.27;;
33327;SDS011;19692;52.998;9.116;2023-03-01T02:08:13;8.20;;;5.10;;
33327;SDS011;19692;52.998;9.116;2023-03-01T02:10:42;6.37;;;5.40;;
33327;SDS011;19692;52.998;9.116;2023-03-01T02:13:09;5.37;;;4.87;;
33327;SDS011;19692;52.998;9.116;2023-03-01T02:15:36;8.07;;;5.13;;
33327;SDS011;19692;52.998;9.116;2023-03-01T02:18:04;9.50;;;5.97;;
33327;SDS011;19692;52.998;9.116;2023-03-01T02:23:34;7.60;;;5.53;;
33327;SDS011;19692;52.998;9.116;2023-03-01T02:26:01;7.70;;;5.97;;
33327;SDS011;19692;52.998;9.116;2023-03-01T02:28:37;8.90;;;5.23;;
33327;SDS011;19692;52.998;9.116;2023-03-01T02:31:06;7.43;;;5.23;;
33327;SDS011;19692;52.998;9.116;2023-03-01T02:33:53;7.83;;;5.20;;
33327;SDS011;19692;52.998;9.116;2023-03-01T02:36:21;6.00;;;4.80;;
33327;SDS011;19692;52.998;9.116;2023-03-01T02:38:52;5.67;;;4.70;;
33327;SDS011;19692;52.998;9.116;2023-03-01T02:41:21;6.63;;;4.83;;
33327;SDS011;19692;52.998;9.116;2023-03-01T02:43:48;7.73;;;4.80;;
33327;SDS011;19692;52.998;9.116;2023-03-01T02:46:16;9.57;;;5.40;;
33327;SDS011;19692;52.998;9.116;2023-03-01T02:48:49;7.70;;;5.40;;
33327;SDS011;19692;52.998;9.116;2023-03-01T02:54:25;7.40;;;5.50;;
33327;SDS011;19692;52.998;9.116;2023-03-01T02:56:59;8.40;;;5.30;;
33327;SDS011;19692;52.998;9.116;2023-03-01T02:59:29;8.50;;;5.27;;
33327;SDS011;19692;52.998;9.116;2023-03-01T03:02:04;7.97;;;5.80;;
33327;SDS011;19692;52.998;9.116;2023-03-01T03:04:31;7.63;;;5.60;;
33327;SDS011;19692;52.998;9.116;2023-03-01T03:06:57;8.03;;;5.60;;
33327;SDS011;19692;52.998;9.116;2023-03-01T03:09:23;8.00;;;5.50;;
33327;SDS011;19692;52.998;9.116;2023-03-01T03:11:49;7.73;;;5.60;;
33327;SDS011;19692;52.998;9.116;2023-03-01T03:14:15;8.33;;;6.20;;
33327;SDS011;19692;52.998;9.116;2023-03-01T03:16:42;9.83;;;6.10;;
33327;SDS011;19692;52.998;9.116;2023-03-01T03:19:14;7.37;;;6.07;;
33327;SDS011;19692;52.998;9.116;2023-03-01T03:21:41;7.33;;;5.60;;
33327;SDS011;19692;52.998;9.116;2023-03-01T03:24:07;9.50;;;6.37;;
33327;SDS011;19692;52.998;9.116;2023-03-01T03:26:33;8.77;;;5.60;;
33327;SDS011;19692;52.998;9.116;2023-03-01T03:28:59;7.93;;;5.93;;
33327;SDS011;19692;52.998;9.116;2023-03-01T03:31:25;8.20;;;5.83;;
33327;SDS011;19692;52.998;9.116;2023-03-01T03:33:52;7.50;;;5.30;;
33327;SDS011;19692;52.998;9.116;2023-03-01T03:36:18;7.27;;;5.43;;
33327;SDS011;19692;52.998;9.116;2023-03-01T03:38:47;6.53;;;5.03;;
33327;SDS011;19692;52.998;9.116;2023-03-01T03:41:13;8.37;;;6.27;;
33327;SDS011;19692;52.998;9.116;2023-03-01T03:43:40;6.40;;;4.63;;
33327;SDS011;19692;52.998;9.116;2023-03-01T03:46:08;6.57;;;4.20;;
33327;SDS011;19692;52.998;9.116;2023-03-01T03:48:40;8.13;;;4.80;;
33327;SDS011;19692;52.998;9.116;2023-03-01T03:51:12;8.27;;;5.30;;
33327;SDS011;19692;52.998;9.116;2023-03-01T03:53:40;7.50;;;5.03;;
33327;SDS011;19692;52.998;9.116;2023-03-01T03:56:07;12.20;;;5.30;;
33327;SDS011;19692;52.998;9.116;2023-03-01T03:58:33;5.07;;;4.43;;
33327;SDS011;19692;52.998;9.116;2023-03-01T04:00:59;10.57;;;5.20;;
33327;SDS011;19692;52.998;9.116;2023-03-01T04:03:29;6.33;;;4.67;;
33327;SDS011;19692;52.998;9.116;2023-03-01T04:05:57;7.17;;;5.03;;
33327;SDS011;19692;52.998;9.116;2023-03-01T04:08:24;8.33;;;5.30;;
33327;SDS011;19692;52.998;9.116;2023-03-01T04:10:51;9.23;;;4.90;;
33327;SDS011;19692;52.998;9.116;2023-03-01T04:13:22;7.90;;;5.10;;
33327;SDS011;19692;52.998;9.116;2023-03-01T04:15:50;7.43;;;5.33;;
33327;SDS011;19692;52.998;9.116;2023-03-01T04:18:18;5.73;;;4.47;;
33327;SDS011;19692;52.998;9.116;2023-03-01T04:20:46;5.07;;;4.50;;
33327;SDS011;19692;52.998;9.116;2023-03-01T04:23:14;5.80;;;4.40;;
33327;SDS011;19692;52.998;9.116;2023-03-01T04:28:53;6.07;;;4.37;;
33327;SDS011;19692;52.998;9.116;2023-03-01T04:31:17;7.07;;;4.90;;
33327;SDS011;19692;52.998;9.116;2023-03-01T04:33:50;9.23;;;4.30;;
33327;SDS011;19692;52.998;9.116;2023-03-01T04:36:21;6.70;;;4.57;;
33327;SDS011;19692;52.998;9.116;2023-03-01T04:38:52;8.70;;;4.40;;
33327;SDS011;19692;52.998;9.116;2023-03-01T04:41:20;5.23;;;4.27;;
33327;SDS011;19692;52.998;9.116;2023-03-01T04:43:48;7.27;;;4.10;;
33327;SDS011;19692;52.998;9.116;2023-03-01T04:46:15;5.97;;;4.27;;
33327;SDS011;19692;52.998;9.116;2023-03-01T04:48:44;6.93;;;4.00;;
33327;SDS011;19692;52.998;9.116;2023-03-01T04:51:10;6.87;;;4.10;;
33327;SDS011;19692;52.998;9.116;2023-03-01T04:53:40;7.40;;;4.20;;
33327;SDS011;19692;52.998;9.116;2023-03-01T04:56:07;6.33;;;4.40;;
33327;SDS011;19692;52.998;9.116;2023-03-01T04:58:33;6.37;;;3.83;;
33327;SDS011;19692;52.998;9.116;2023-03-01T05:00:59;7.93;;;4.57;;
33327;SDS011;19692;52.998;9.116;2023-03-01T05:03:25;7.00;;;5.37;;
33327;SDS011;19692;52.998;9.116;2023-03-01T05:05:51;8.23;;;4.20;;
33327;SDS011;19692;52.998;9.116;2023-03-01T05:08:17;5.17;;;4.23;;
33327;SDS011;19692;52.998;9.116;2023-03-01T05:13:13;8.33;;;4.33;;
33327;SDS011;19692;52.998;9.116;2023-03-01T05:15:45;13.43;;;4.30;;
33327;SDS011;19692;52.998;9.116;2023-03-01T05:18:13;7.97;;;4.70;;
33327;SDS011;19692;52.998;9.116;2023-03-01T05:20:39;6.30;;;4.47;;
33327;SDS011;19692;52.998;9.116;2023-03-01T05:23:05;6.27;;;4.70;;
33327;SDS011;19692;52.998;9.116;2023-03-01T05:25:31;7.07;;;4.70;;
33327;SDS011;19692;52.998;9.116;2023-03-01T05:27:59;5.83;;;4.47;;
33327;SDS011;19692;52.998;9.116;2023-03-01T05:30:29;6.40;;;4.80;;
33327;SDS011;19692;52.998;9.116;2023-03-01T05:32:57;6.80;;;5.13;;
33327;SDS011;19692;52.998;9.116;2023-03-01T05:35:24;6.73;;;4.60;;
33327;SDS011;19692;52.998;9.116;2023-03-01T05:37:49;9.27;;;5.47;;
33327;SDS011;19692;52.998;9.116;2023-03-01T05:40:20;7.77;;;5.23;;
33327;SDS011;19692;52.998;9.116;2023-03-01T05:42:50;8.40;;;5.27;;
33327;SDS011;19692;52.998;9.116;2023-03-01T05:45:19;10.07;;;5.70;;
33327;SDS011;19692;52.998;9.116;2023-03-01T05:47:47;9.93;;;4.87;;
33327;SDS011;19692;52.998;9.116;2023-03-01T05:52:49;6.70;;;4.93;;
33327;SDS011;19692;52.998;9.116;2023-03-01T05:55:18;8.67;;;5.23;;
33327;SDS011;19692;52.998;9.116;2023-03-01T05:57:46;6.07;;;4.67;;
33327;SDS011;19692;52.998;9.116;2023-03-01T06:00:13;7.17;;;5.23;;
33327;SDS011;19692;52.998;9.116;2023-03-01T06:02:41;10.47;;;5.60;;
33327;SDS011;19692;52.998;9.116;2023-03-01T06:05:07;8.57;;;6.27;;
33327;SDS011;19692;52.998;9.116;2023-03-01T06:07:35;9.70;;;5.43;;
33327;SDS011;19692;52.998;9.116;2023-03-01T06:10:02;11.03;;;5.83;;
33327;SDS011;19692;52.998;9.116;2023-03-01T06:12:33;10.93;;;5.37;;
33327;SDS011;19692;52.998;9.116;2023-03-01T06:15:01;10.47;;;5.30;;
33327;SDS011;19692;52.998;9.116;2023-03-01T06:17:29;11.83;;;6.17;;
33327;SDS011;19692;52.998;9.116;2023-03-01T06:19:57;12.60;;;7.33;;
33327;SDS011;19692;52.998;9.116;2023-03-01T06:22:23;16.77;;;7.50;;
33327;SDS011;19692;52.998;9.116;2023-03-01T06:24:49;9.47;;;5.87;;
33327;SDS011;19692;52.998;9.116;2023-03-01T06:27:15;12.80;;;7.13;;
33327;SDS011;19692;52.998;9.116;2023-03-01T06:29:41;12.33;;;6.87;;
33327;SDS011;19692;52.998;9.116;2023-03-01T06:32:06;14.70;;;6.97;;
33327;SDS011;19692;52.998;9.116;2023-03-01T06:34:33;9.23;;;6.53;;
33327;SDS011;19692;52.998;9.116;2023-03-01T06:36:58;35.77;;;17.33;;
33327;SDS011;19692;52.998;9.116;2023-03-01T06:39:27;15.27;;;7.93;;
33327;SDS011;19692;52.998;9.116;2023-03-01T06:41:53;17.80;;;7.67;;
33327;SDS011;19692;52.998;9.116;2023-03-01T06:44:19;14.40;;;7.00;;
33327;SDS011;19692;52.998;9.116;2023-03-01T06:46:45;8.40;;;6.63;;
33327;SDS011;19692;52.998;9.116;2023-03-01T06:49:11;10.77;;;5.40;;
33327;SDS011;19692;52.998;9.116;2023-03-01T06:51:37;10.67;;;6.27;;
33327;SDS011;19692;52.998;9.116;2023-03-01T06:54:03;11.03;;;6.63;;
33327;SDS011;19692;52.998;9.116;2023-03-01T06:56:30;9.97;;;6.40;;
33327;SDS011;19692;52.998;9.116;2023-03-01T06:58:56;11.37;;;6.10;;
33327;SDS011;19692;52.998;9.116;2023-03-01T07:01:22;7.57;;;5.47;;
33327;SDS011;19692;52.998;9.116;2023-03-01T07:03:48;9.27;;;6.10;;
33327;SDS011;19692;52.998;9.116;2023-03-01T07:06:14;10.93;;;6.93;;
33327;SDS011;19692;52.998;9.116;2023-03-01T07:08:40;9.77;;;6.60;;
33327;SDS011;19692;52.998;9.116;2023-03-01T07:11:06;12.27;;;7.67;;
33327;SDS011;19692;52.998;9.116;2023-03-01T07:13:32;11.57;;;6.97;;
33327;SDS011;19692;52.998;9.116;2023-03-01T07:15:57;13.63;;;9.20;;
33327;SDS011;19692;52.998;9.116;2023-03-01T07:18:23;13.00;;;9.10;;
33327;SDS011;19692;52.998;9.116;2023-03-01T07:20:49;13.20;;;7.73;;
33327;SDS011;19692;52.998;9.116;2023-03-01T07:23:15;9.97;;;7.80;;
33327;SDS011;19692;52.998;9.116;2023-03-01T07:25:41;12.33;;;7.47;;
33327;SDS011;19692;52.998;9.116;2023-03-01T07:28:07;10.63;;;7.07;;
33327;SDS011;19692;52.998;9.116;2023-03-01T07:30:33;9.77;;;7.07;;
33327;SDS011;19692;52.998;9.116;2023-03-01T07:32:58;7.37;;;6.30;;
33327;SDS011;19692;52.998;9.116;2023-03-01T07:35:25;7.67;;;5.97;;
33327;SDS011;19692;52.998;9.116;2023-03-01T07:37:51;12.37;;;7.07;;
33327;SDS011;19692;52.998;9.116;2023-03-01T07:40:18;11.13;;;7.57;;
33327;SDS011;19692;52.998;9.116;2023-03-01T07:42:43;15.50;;;7.23;;
33327;SDS011;19692;52.998;9.116;2023-03-01T07:45:09;11.40;;;7.43;;
33327;SDS011;19692;52.998;9.116;2023-03-01T07:47:36;10.90;;;7.20;;
33327;SDS011;19692;52.998;9.116;2023-03-01T07:50:02;9.23;;;6.60;;
33327;SDS011;19692;52.998;9.116;2023-03-01T07:52:29;9.50;;;7.47;;
33327;SDS011;19692;52.998;9.116;2023-03-01T07:54:56;11.90;;;7.13;;
33327;SDS011;19692;52.998;9.116;2023-03-01T07:57:22;10.53;;;7.17;;
33327;SDS011;19692;52.998;9.116;2023-03-01T07:59:51;9.40;;;7.20;;
33327;SDS011;19692;52.998;9.116;2023-03-01T08:02:19;11.10;;;7.13;;
33327;SDS011;19692;52.998;9.116;2023-03-01T08:04:45;10.37;;;7.73;;
33327;SDS011;19692;52.998;9.116;2023-03-01T08:07:11;8.80;;;7.73;;
33327;SDS011;19692;52.998;9.116;2023-03-01T08:09:36;10.03;;;8.00;;
33327;SDS011;19692;52.998;9.116;2023-03-01T08:12:03;14.27;;;8.83;;
33327;SDS011;19692;52.998;9.116;2023-03-01T08:14:30;10.30;;;7.10;;
33327;SDS011;19692;52.998;9.116;2023-03-01T08:16:57;10.23;;;6.87;;
33327;SDS011;19692;52.998;9.116;2023-03-01T08:19:23;11.80;;;6.70;;
33327;SDS011;19692;52.998;9.116;2023-03-01T08:21:49;12.33;;;6.60;;
33327;SDS011;19692;52.998;9.116;2023-03-01T08:24:15;9.13;;;6.83;;
33327;SDS011;19692;52.998;9.116;2023-03-01T08:26:43;11.07;;;7.23;;
33327;SDS011;19692;52.998;9.116;2023-03-01T08:29:09;10.97;;;7.13;;
33327;SDS011;19692;52.998;9.116;2023-03-01T08:31:35;9.73;;;6.97;;
33327;SDS011;19692;52.998;9.116;2023-03-01T08:34:06;10.00;;;7.00;;
33327;SDS011;19692;52.998;9.116;2023-03-01T08:36:36;10.50;;;7.43;;
33327;SDS011;19692;52.998;9.116;2023-03-01T08:39:05;9.77;;;6.63;;
33327;SDS011;19692;52.998;9.116;2023-03-01T08:41:32;10.80;;;7.13;;
33327;SDS011;19692;52.998;9.116;2023-03-01T08:43:58;12.97;;;7.97;;
33327;SDS011;19692;52.998;9.116;2023-03-01T08:46:27;10.93;;;7.93;;
33327;SDS011;19692;52.998;9.116;2023-03-01T08:48:55;9.20;;;6.97;;
33327;SDS011;19692;52.998;9.116;2023-03-01T08:51:21;9.37;;;6.60;;
33327;SDS011;19692;52.998;9.116;2023-03-01T08:53:48;7.77;;;6.17;;
33327;SDS011;19692;52.998;9.116;2023-03-01T08:56:15;10.60;;;6.40;;
33327;SDS011;19692;52.998;9.116;2023-03-01T08:58:45;8.70;;;6.73;;
33327;SDS011;19692;52.998;9.116;2023-03-01T09:01:13;13.67;;;7.03;;
33327;SDS011;19692;52.998;9.116;2023-03-01T09:03:43;12.77;;;9.20;;
33327;SDS011;19692;52.998;9.116;2023-03-01T09:06:09;38.30;;;22.57;;
33327;SDS011;19692;52.998;9.116;2023-03-01T09:08:38;12.80;;;7.37;;
33327;SDS011;19692;52.998;9.116;2023-03-01T09:11:13;11.20;;;7.33;;
33327;SDS011;19692;52.998;9.116;2023-03-01T09:13:45;13.90;;;9.10;;
33327;SDS011;19692;52.998;9.116;2023-03-01T09:16:13;13.07;;;9.63;;
33327;SDS011;19692;52.998;9.116;2023-03-01T09:18:42;18.63;;;14.37;;
33327;SDS011;19692;52.998;9.116;2023-03-01T09:21:14;40.03;;;23.70;;
33327;SDS011;19692;52.998;9.116;2023-03-01T09:23:42;20.23;;;15.03;;
33327;SDS011;19692;52.998;9.116;2023-03-01T09:26:12;15.53;;;10.37;;
33327;SDS011;19692;52.998;9.116;2023-03-01T09:28:44;11.50;;;6.70;;
33327;SDS011;19692;52.998;9.116;2023-03-01T09:31:11;8.47;;;6.53;;
33327;SDS011;19692;52.998;9.116;2023-03-01T09:33:39;10.43;;;7.50;;
33327;SDS011;19692;52.998;9.116;2023-03-01T09:36:07;7.67;;;6.17;;
33327;SDS011;19692;52.998;9.116;2023-03-01T09:38:37;9.30;;;5.30;;
33327;SDS011;19692;52.998;9.116;2023-03-01T09:41:08;6.07;;;4.90;;
33327;SDS011;19692;52.998;9.116;2023-03-01T09:44:16;8.97;;;5.50;;
33327;SDS011;19692;52.998;9.116;2023-03-01T09:47:00;8.73;;;5.00;;
33327;SDS011;19692;52.998;9.116;2023-03-01T09:49:28;7.63;;;5.63;;
33327;SDS011;19692;52.998;9.116;2023-03-01T09:54:58;7.10;;;5.10;;
33327;SDS011;19692;52.998;9.116;2023-03-01T10:00:26;7.00;;;4.73;;
33327;SDS011;19692;52.998;9.116;2023-03-01T10:11:37;8.17;;;4.60;;
33327;SDS011;19692;52.998;9.116;2023-03-01T10:18:01;7.00;;;3.83;;
33327;SDS011;19692;52.998;9.116;2023-03-01T10:23:25;5.97;;;3.83;;
33327;SDS011;19692;52.998;9.116;2023-03-01T10:26:12;7.00;;;4.80;;
33327;SDS011;19692;52.998;9.116;2023-03-01T10:31:37;9.00;;;4.60;;
33327;SDS011;19692;52.998;9.116;2023-03-01T10:34:18;8.57;;;5.20;;
33327;SDS011;19692;52.998;9.116;2023-03-01T10:36:50;8.57;;;6.67;;
33327;SDS011;19692;52.998;9.116;2023-03-01T10:39:19;12.20;;;6.80;;
33327;SDS011;19692;52.998;9.116;2023-03-01T10:47:14;9.83;;;7.93;;
33327;SDS011;19692;52.998;9.116;2023-03-01T10:49:58;11.40;;;7.93;;
33327;SDS011;19692;52.998;9.116;2023-03-01T10:52:34;9.10;;;7.10;;
33327;SDS011;19692;52.998;9.116;2023-03-01T10:58:09;10.90;;;8.30;;
33327;SDS011;19692;52.998;9.116;2023-03-01T11:00:50;10.83;;;8.30;;
33327;SDS011;19692;52.998;9.116;2023-03-01T11:03:20;10.83;;;8.03;;
33327;SDS011;19692;52.998;9.116;2023-03-01T11:06:00;11.10;;;8.10;;
33327;SDS011;19692;52.998;9.116;2023-03-01T11:08:40;10.43;;;8.47;;
33327;SDS011;19692;52.998;9.116;2023-03-01T11:16:37;8.90;;;7.27;;
33327;SDS011;19692;52.998;9.116;2023-03-01T11:21:35;8.83;;;7.33;;
33327;SDS011;19692;52.998;9.116;2023-03-01T11:24:10;10.97;;;7.80;;
33327;SDS011;19692;52.998;9.116;2023-03-01T11:26:41;10.67;;;7.70;;
33327;SDS011;19692;52.998;9.116;2023-03-01T11:32:28;10.10;;;7.17;;
33327;SDS011;19692;52.998;9.116;2023-03-01T11:35:14;9.27;;;7.20;;
33327;SDS011;19692;52.998;9.116;2023-03-01T11:37:55;8.57;;;7.13;;
33327;SDS011;19692;52.998;9.116;2023-03-01T11:40:28;8.47;;;7.20;;
33327;SDS011;19692;52.998;9.116;2023-03-01T11:43:26;8.73;;;7.43;;
33327;SDS011;19692;52.998;9.116;2023-03-01T11:46:22;10.30;;;7.60;;
33327;SDS011;19692;52.998;9.116;2023-03-01T12:06:52;10.37;;;7.70;;
33327;SDS011;19692;52.998;9.116;2023-03-01T12:09:36;8.10;;;7.27;;
33327;SDS011;19692;52.998;9.116;2023-03-01T12:12:47;8.67;;;7.10;;
33327;SDS011;19692;52.998;9.116;2023-03-01T12:33:37;10.97;;;7.90;;
33327;SDS011;19692;52.998;9.116;2023-03-01T12:39:32;9.50;;;7.57;;
33327;SDS011;19692;52.998;9.116;2023-03-01T12:42:28;8.73;;;7.27;;
33327;SDS011;19692;52.998;9.116;2023-03-01T12:45:24;7.77;;;6.93;;
33327;SDS011;19692;52.998;9.116;2023-03-01T12:51:03;9.90;;;7.07;;
33327;SDS011;19692;52.998;9.116;2023-03-01T12:53:36;10.53;;;7.73;;
33327;SDS011;19692;52.998;9.116;2023-03-01T12:56:14;9.87;;;7.77;;
33327;SDS011;19692;52.998;9.116;2023-03-01T12:58:51;10.30;;;8.10;;
33327;SDS011;19692;52.998;9.116;2023-03-01T13:01:45;8.83;;;7.93;;
33327;SDS011;19692;52.998;9.116;2023-03-01T13:05:15;9.90;;;8.97;;
33327;SDS011;19692;52.998;9.116;2023-03-01T13:08:20;10.13;;;7.60;;
33327;SDS011;19692;52.998;9.116;2023-03-01T13:10:58;8.60;;;7.70;;
33327;SDS011;19692;52.998;9.116;2023-03-01T13:13:28;9.13;;;7.93;;
33327;SDS011;19692;52.998;9.116;2023-03-01T13:15:57;9.13;;;8.13;;
33327;SDS011;19692;52.998;9.116;2023-03-01T13:18:48;8.60;;;7.63;;
33327;SDS011;19692;52.998;9.116;2023-03-01T13:21:32;9.70;;;8.00;;
33327;SDS011;19692;52.998;9.116;2023-03-01T13:23:58;8.73;;;7.73;;
33327;SDS011;19692;52.998;9.116;2023-03-01T13:26:25;10.43;;;8.13;;
33327;SDS011;19692;52.998;9.116;2023-03-01T13:28:54;10.23;;;8.37;;
33327;SDS011;19692;52.998;9.116;2023-03-01T13:33:54;12.03;;;8.00;;
33327;SDS011;19692;52.998;9.116;2023-03-01T13:41:58;9.33;;;8.33;;
33327;SDS011;19692;52.998;9.116;2023-03-01T13:44:37;9.07;;;7.63;;
33327;SDS011;19692;52.998;9.116;2023-03-01T13:47:12;9.03;;;8.13;;
33327;SDS011;19692;52.998;9.116;2023-03-01T13:49:43;9.43;;;7.60;;
33327;SDS011;19692;52.998;9.116;2023-03-01T13:58:01;9.67;;;7.83;;
33327;SDS011;19692;52.998;9.116;2023-03-01T14:00:34;9.37;;;7.83;;
33327;SDS011;19692;52.998;9.116;2023-03-01T14:03:13;8.40;;;7.00;;
33327;SDS011;19692;52.998;9.116;2023-03-01T14:08:40;7.00;;;6.30;;
33327;SDS011;19692;52.998;9.116;2023-03-01T14:11:30;7.97;;;7.10;;
33327;SDS011;19692;52.998;9.116;2023-03-01T14:19:40;8.43;;;7.43;;
33327;SDS011;19692;52.998;9.116;2023-03-01T14:22:13;7.70;;;7.00;;
33327;SDS011;19692;52.998;9.116;2023-03-01T14:24:55;7.90;;;7.10;;
33327;SDS011;19692;52.998;9.116;2023-03-01T14:27:35;8.07;;;7.23;;
33327;SDS011;19692;52.998;9.116;2023-03-01T14:30:15;7.47;;;6.77;;
33327;SDS011;19692;52.998;9.116;2023-03-01T14:32:57;7.50;;;6.70;;
33327;SDS011;19692;52.998;9.116;2023-03-01T14:35:26;8.17;;;6.97;;
33327;SDS011;19692;52.998;9.116;2023-03-01T14:37:55;8.13;;;6.80;;
33327;SDS011;19692;52.998;9.116;2023-03-01T14:43:00;9.50;;;7.10;;
33327;SDS011;19692;52.998;9.116;2023-03-01T14:45:34;8.60;;;7.43;;
33327;SDS011;19692;52.998;9.116;2023-03-01T14:48:01;9.63;;;6.97;;
33327;SDS011;19692;52.998;9.116;2023-03-01T14:50:31;7.97;;;6.80;;
33327;SDS011;19692;52.998;9.116;2023-03-01T14:53:00;7.93;;;6.90;;
33327;SDS011;19692;52.998;9.116;2023-03-01T14:55:32;8.07;;;7.23;;
33327;SDS011;19692;52.998;9.116;2023-03-01T14:58:12;10.80;;;7.03;;
33327;SDS011;19692;52.998;9.116;2023-03-01T15:00:47;8.83;;;7.00;;
33327;SDS011;19692;52.998;9.116;2023-03-01T15:03:26;9.43;;;7.20;;
33327;SDS011;19692;52.998;9.116;2023-03-01T15:06:05;9.80;;;7.57;;
33327;SDS011;19692;52.998;9.116;2023-03-01T15:08:32;8.50;;;7.60;;
33327;SDS011;19692;52.998;9.116;2023-03-01T15:11:00;7.50;;;6.57;;
33327;SDS011;19692;52.998;9.116;2023-03-01T15:13:48;9.10;;;7.27;;
33327;SDS011;19692;52.998;9.116;2023-03-01T15:16:24;7.67;;;6.93;;
33327;SDS011;19692;52.998;9.116;2023-03-01T15:18:59;7.90;;;7.10;;
33327;SDS011;19692;52.998;9.116;2023-03-01T15:21:37;8.30;;;7.50;;
33327;SDS011;19692;52.998;9.116;2023-03-01T15:24:06;10.27;;;7.60;;
33327;SDS011;19692;52.998;9.116;2023-03-01T15:26:55;8.33;;;6.77;;
33327;SDS011;19692;52.998;9.116;2023-03-01T15:29:31;7.80;;;7.00;;
33327;SDS011;19692;52.998;9.116;2023-03-01T15:34:59;8.53;;;7.67;;
33327;SDS011;19692;52.998;9.116;2023-03-01T15:37:51;9.50;;;7.20;;
33327;SDS011;19692;52.998;9.116;2023-03-01T15:40:26;9.50;;;8.50;;
33327;SDS011;19692;52.998;9.116;2023-03-01T15:43:01;11.23;;;9.70;;
33327;SDS011;19692;52.998;9.116;2023-03-01T15:52:13;14.83;;;11.63;;
33327;SDS011;19692;52.998;9.116;2023-03-01T15:54:54;12.60;;;11.23;;
33327;SDS011;19692;52.998;9.116;2023-03-01T15:57:32;13.20;;;11.50;;
33327;SDS011;19692;52.998;9.116;2023-03-01T16:00:10;15.93;;;11.47;;
33327;SDS011;19692;52.998;9.116;2023-03-01T16:02:49;13.93;;;11.20;;
33327;SDS011;19692;52.998;9.116;2023-03-01T16:07:52;13.73;;;11.03;;
33327;SDS011;19692;52.998;9.116;2023-03-01T16:10:18;14.00;;;11.37;;
33327;SDS011;19692;52.998;9.116;2023-03-01T16:12:47;17.40;;;11.97;;
33327;SDS011;19692;52.998;9.116;2023-03-01T16:15:21;16.63;;;11.90;;
33327;SDS011;19692;52.998;9.116;2023-03-01T16:18:20;13.00;;;11.17;;
33327;SDS011;19692;52.998;9.116;2023-03-01T16:20:53;14.43;;;11.07;;
33327;SDS011;19692;52.998;9.116;2023-03-01T16:24:07;16.33;;;10.90;;
33327;SDS011;19692;52.998;9.116;2023-03-01T16:26:33;15.50;;;11.43;;
33327;SDS011;19692;52.998;9.116;2023-03-01T16:29:01;13.50;;;11.60;;
33327;SDS011;19692;52.998;9.116;2023-03-01T16:31:26;14.73;;;12.27;;
33327;SDS011;19692;52.998;9.116;2023-03-01T16:33:54;21.73;;;14.37;;
33327;SDS011;19692;52.998;9.116;2023-03-01T16:36:21;20.83;;;12.57;;
33327;SDS011;19692;52.998;9.116;2023-03-01T16:38:48;16.97;;;12.53;;
33327;SDS011;19692;52.998;9.116;2023-03-01T16:41:17;15.23;;;12.77;;
33327;SDS011;19692;52.998;9.116;2023-03-01T16:43:46;16.10;;;12.60;;
33327;SDS011;19692;52.998;9.116;2023-03-01T16:46:16;14.80;;;12.10;;
33327;SDS011;19692;52.998;9.116;2023-03-01T16:48:47;19.33;;;12.57;;
33327;SDS011;19692;52.998;9.116;2023-03-01T16:51:14;18.57;;;12.43;;
33327;SDS011;19692;52.998;9.116;2023-03-01T16:53:40;18.07;;;13.00;;
33327;SDS011;19692;52.998;9.116;2023-03-01T16:56:07;20.03;;;12.53;;
33327;SDS011;19692;52.998;9.116;2023-03-01T16:58:35;15.53;;;11.93;;
33327;SDS011;19692;52.998;9.116;2023-03-01T17:01:06;17.73;;;13.20;;
33327;SDS011;19692;52.998;9.116;2023-03-01T17:03:37;16.53;;;13.77;;
33327;SDS011;19692;52.998;9.116;2023-03-01T17:06:07;15.43;;;12.77;;
33327;SDS011;19692;52.998;9.116;2023-03-01T17:08:37;17.83;;;12.30;;
33327;SDS011;19692;52.998;9.116;2023-03-01T17:13:38;18.73;;;13.73;;
33327;SDS011;19692;52.998;9.116;2023-03-01T17:16:07;19.80;;;14.53;;
33327;SDS011;19692;52.998;9.116;2023-03-01T17:18:36;23.63;;;15.40;;
33327;SDS011;19692;52.998;9.116;2023-03-01T17:21:03;22.17;;;16.83;;
33327;SDS011;19692;52.998;9.116;2023-03-01T17:23:31;21.33;;;15.47;;
33327;SDS011;19692;52.998;9.116;2023-03-01T17:25:57;24.27;;;16.07;;
33327;SDS011;19692;52.998;9.116;2023-03-01T17:28:24;24.03;;;16.53;;
33327;SDS011;19692;52.998;9.116;2023-03-01T17:30:57;22.40;;;15.93;;
33327;SDS011;19692;52.998;9.116;2023-03-01T17:33:25;24.13;;;16.30;;